Time;durP1;ratioP1;P1;durP2;ratioP2;P2;SDS_P1;SDS_P2;PMS_P1;PMS_P2;Temp;Humidity;BMP_temperature;BMP_pressure;BME280_temperature;BME280_humidity;BME280_pressure;Samples;Min_cycle;Max_cycle;Signal;HPM_P1;HPM_P2
2021/03/27 00:00:22;;;;;;;19.85;4.00;;;;;;;;;;5231836;27;20060;-85
2021/03/27 00:02:53;;;;;;;23.67;4.20;;;;;;;;;;5227855;27;20281;-85
2021/03/27 00:05:52;;;;;;;28.08;4.68;;;;;;;;;;5229561;27;20018;-84
2021/03/27 00:08:27;;;;;;;;;;;;;;;;;;5196797;27;20038;-85
2021/03/27 00:10:57;;;;;;;33.75;4.70;;;;;;;;;;5232993;27;20234;-84
2021/03/27 00:13:26;;;;;;;25.37;3.85;;;;;;;;;;5231925;27;20018;-84
2021/03/27 00:15:57;;;;;;;23.30;4.35;;;;;;;;;;5211898;27;20026;-85
2021/03/27 00:18:33;;;;;;;30.35;4.57;;;;;;;;;;5233545;27;20041;-86
2021/03/27 00:21:07;;;;;;;27.30;5.03;;;;;;;;;;5211906;27;20027;-85
2021/03/27 00:23:37;;;;;;;30.45;4.55;;;;;;;;;;5231985;27;20429;-85
2021/03/27 00:26:05;;;;;;;25.62;4.60;;;;;;;;;;5232987;27;20019;-84
2021/03/27 00:28:59;;;;;;;20.67;4.10;;;;;;;;;;5213712;27;20405;-86
2021/03/27 00:31:29;;;;;;;24.17;4.20;;;;;;;;;;5230283;27;20027;-84
2021/03/27 00:34:02;;;;;;;20.35;3.67;;;;;;;;;;5210730;27;20029;-85
2021/03/27 00:36:35;;;;;;;15.05;3.72;;;;;;;;;;5232392;27;20436;-85
2021/03/27 00:39:15;;;;;;;21.05;3.90;;;;;;;;;;5230183;27;20030;-84
2021/03/27 00:41:55;;;;;;;17.70;3.90;;;;;;;;;;5231595;27;20385;-84
2021/03/27 00:44:27;;;;;;;23.98;3.90;;;;;;;;;;5230768;27;20029;-84
2021/03/27 00:47:01;;;;;;;27.92;4.43;;;;;;;;;;5210487;27;20037;-85
2021/03/27 00:49:49;;;;;;;23.25;3.95;;;;;;;;;;5229592;27;20045;-84
2021/03/27 00:52:19;;;;;;;21.37;4.25;;;;;;;;;;5214991;27;20030;-85
2021/03/27 00:54:59;;;;;;;19.10;3.78;;;;;;;;;;5212403;27;20056;-86
2021/03/27 00:57:29;;;;;;;20.50;4.45;;;;;;;;;;5230228;27;20341;-84
2021/03/27 01:00:16;;;;;;;25.67;3.95;;;;;;;;;;5229288;27;20496;-85
2021/03/27 01:03:03;;;;;;;21.45;4.05;;;;;;;;;;5228464;27;20039;-85
2021/03/27 01:05:34;;;;;;;33.33;4.40;;;;;;;;;;5227708;27;20026;-86
2021/03/27 01:08:06;;;;;;;20.92;4.25;;;;;;;;;;5209073;27;20374;-85
2021/03/27 01:10:54;;;;;;;22.92;3.80;;;;;;;;;;5211588;27;20459;-85
2021/03/27 01:13:29;;;;;;;23.05;3.97;;;;;;;;;;5229579;27;20161;-84
2021/03/27 01:15:59;;;;;;;27.10;4.35;;;;;;;;;;5225230;27;20388;-86
2021/03/27 01:18:32;;;;;;;15.95;3.85;;;;;;;;;;5227583;27;20026;-85
2021/03/27 01:21:04;;;;;;;21.80;4.18;;;;;;;;;;5229194;27;20082;-85
2021/03/27 01:23:32;;;;;;;22.35;4.40;;;;;;;;;;5221433;27;20067;-86
2021/03/27 01:26:01;;;;;;;21.67;4.40;;;;;;;;;;5227710;27;20034;-85
2021/03/27 01:28:29;;;;;;;19.00;3.92;;;;;;;;;;5227985;27;20384;-85
2021/03/27 01:31:16;;;;;;;16.83;4.07;;;;;;;;;;5223239;27;20040;-84
2021/03/27 01:34:23;;;;;;;24.02;4.10;;;;;;;;;;5227654;27;20017;-84
2021/03/27 01:37:01;;;;;;;25.05;3.85;;;;;;;;;;5115739;28;20068;-84
2021/03/27 01:39:33;;;;;;;17.27;3.62;;;;;;;;;;5114158;28;20423;-84
2021/03/27 01:42:10;;;;;;;18.62;4.20;;;;;;;;;;5179827;27;20103;-85
2021/03/27 01:44:47;;;;;;;24.50;4.25;;;;;;;;;;5203307;27;20046;-85
2021/03/27 01:47:28;;;;;;;20.95;3.90;;;;;;;;;;5223815;27;20054;-84
2021/03/27 01:50:10;;;;;;;19.45;3.50;;;;;;;;;;5225429;27;20023;-85
2021/03/27 01:52:55;;;;;;;25.65;4.32;;;;;;;;;;5199972;27;20054;-84
2021/03/27 01:55:26;;;;;;;19.55;3.87;;;;;;;;;;5185425;27;20424;-84
2021/03/27 01:58:03;;;;;;;20.70;4.10;;;;;;;;;;5224912;27;20057;-85
2021/03/27 02:00:50;;;;;;;17.12;3.53;;;;;;;;;;5224109;27;20058;-84
2021/03/27 02:03:18;;;;;;;23.55;4.43;;;;;;;;;;5216945;27;20459;-85
2021/03/27 02:06:20;;;;;;;19.77;4.00;;;;;;;;;;5220501;27;20096;-86
2021/03/27 02:08:48;;;;;;;18.80;3.97;;;;;;;;;;5183175;27;20030;-83
2021/03/27 02:11:36;;;;;;;28.17;4.22;;;;;;;;;;5221867;27;20062;-85
2021/03/27 02:14:07;;;;;;;25.65;4.12;;;;;;;;;;5219804;27;20375;-85
2021/03/27 02:16:45;;;;;;;21.92;4.07;;;;;;;;;;5227015;27;20105;-85
2021/03/27 02:19:14;;;;;;;25.00;3.83;;;;;;;;;;5224184;27;20529;-84
2021/03/27 02:22:01;;;;;;;19.65;4.35;;;;;;;;;;5222375;27;20050;-85
2021/03/27 02:24:36;;;;;;;21.00;3.95;;;;;;;;;;5220329;27;20405;-84
2021/03/27 02:27:16;;;;;;;18.85;4.10;;;;;;;;;;5206636;27;20339;-85
2021/03/27 02:29:44;;;;;;;18.92;4.05;;;;;;;;;;5206686;27;20123;-85
2021/03/27 02:32:14;;;;;;;23.17;4.60;;;;;;;;;;5199835;27;20054;-84
2021/03/27 02:34:45;;;;;;;21.58;4.05;;;;;;;;;;5204832;27;20030;-85
2021/03/27 02:37:16;;;;;;;23.80;4.50;;;;;;;;;;5228001;27;20033;-85
2021/03/27 02:39:52;;;;;;;22.27;4.12;;;;;;;;;;5218668;27;20059;-85
2021/03/27 02:42:39;;;;;;;29.87;4.75;;;;;;;;;;5218943;27;20042;-85
2021/03/27 02:45:16;;;;;;;28.62;4.20;;;;;;;;;;5224562;27;20019;-85
2021/03/27 02:47:50;;;;;;;23.00;4.35;;;;;;;;;;5223997;27;20342;-85
2021/03/27 02:50:18;;;;;;;21.23;4.25;;;;;;;;;;5201381;27;20062;-85
2021/03/27 02:53:07;;;;;;;22.15;4.55;;;;;;;;;;5218306;27;20447;-84
2021/03/27 02:55:43;;;;;;;20.65;3.90;;;;;;;;;;5210877;27;20350;-85
2021/03/27 02:58:14;;;;;;;18.42;4.00;;;;;;;;;;5226891;27;20774;-84
2021/03/27 03:01:03;;;;;;;25.33;4.62;;;;;;;;;;5220766;27;20085;-85
2021/03/27 03:03:34;;;;;;;17.12;3.78;;;;;;;;;;5169393;27;20066;-85
2021/03/27 03:06:08;;;;;;;18.33;4.25;;;;;;;;;;5228846;27;20066;-84
2021/03/27 03:08:39;;;;;;;21.55;4.45;;;;;;;;;;5224827;27;20027;-86
2021/03/27 03:11:21;;;;;;;21.45;3.85;;;;;;;;;;5238327;27;20022;-94
2021/03/27 03:14:07;;;;;;;20.77;3.97;;;;;;;;;;5228207;27;20695;-94
2021/03/27 03:16:46;;;;;;;22.17;3.58;;;;;;;;;;5224623;27;20165;-95
2021/03/27 03:19:24;;;;;;;24.98;4.37;;;;;;;;;;5226603;27;20077;-94
2021/03/27 03:22:02;;;;;;;20.75;4.30;;;;;;;;;;5225872;27;20029;-95
2021/03/27 03:24:36;;;;;;;26.27;4.43;;;;;;;;;;5225280;27;20025;-95
2021/03/27 03:27:04;;;;;;;23.08;4.43;;;;;;;;;;5224132;27;20450;-93
2021/03/27 03:29:36;;;;;;;19.27;3.85;;;;;;;;;;5220051;27;20026;-94
2021/03/27 03:32:26;;;;;;;17.58;3.87;;;;;;;;;;5222098;27;20037;-95
2021/03/27 03:35:13;;;;;;;28.55;4.60;;;;;;;;;;5221775;27;20385;-94
2021/03/27 03:37:57;;;;;;;27.42;4.40;;;;;;;;;;5220124;27;20536;-93
2021/03/27 03:40:41;;;;;;;24.42;4.12;;;;;;;;;;5221919;27;20093;-94
2021/03/27 03:43:22;;;;;;;18.00;4.07;;;;;;;;;;5222883;27;20064;-95
2021/03/27 03:46:10;;;;;;;22.85;4.03;;;;;;;;;;5225073;27;20030;-94
2021/03/27 03:48:44;;;;;;;21.55;3.75;;;;;;;;;;5222023;27;20050;-95
2021/03/27 03:51:22;;;;;;;17.55;4.20;;;;;;;;;;5222384;27;20041;-95
2021/03/27 03:53:56;;;;;;;20.52;4.20;;;;;;;;;;5223241;27;20030;-94
2021/03/27 03:56:30;;;;;;;15.32;3.67;;;;;;;;;;5222449;27;20058;-94
2021/03/27 03:59:28;;;;;;;22.77;4.18;;;;;;;;;;5225620;27;20099;-94
2021/03/27 04:02:20;;;;;;;21.62;3.97;;;;;;;;;;5242481;27;20026;-95
2021/03/27 04:05:02;;;;;;;19.05;3.92;;;;;;;;;;5234374;27;20081;-94
2021/03/27 04:07:54;;;;;;;15.02;3.67;;;;;;;;;;5226521;27;20528;-94
2021/03/27 04:10:26;;;;;;;20.60;4.28;;;;;;;;;;5224689;27;20033;-95
2021/03/27 04:13:20;;;;;;;21.85;4.30;;;;;;;;;;5248667;27;20013;-93
2021/03/27 04:16:17;;;;;;;20.83;3.95;;;;;;;;;;5231127;27;20030;-94
2021/03/27 04:19:10;;;;;;;19.77;3.80;;;;;;;;;;5229432;27;20149;-94
2021/03/27 04:21:43;;;;;;;22.25;4.25;;;;;;;;;;5224697;27;20024;-95
2021/03/27 04:24:40;;;;;;;21.30;4.43;;;;;;;;;;5225968;27;20034;-94
2021/03/27 04:27:21;;;;;;;18.37;4.07;;;;;;;;;;5209421;27;20026;-96
2021/03/27 04:29:50;;;;;;;17.83;3.60;;;;;;;;;;5224456;27;20419;-94
2021/03/27 04:32:28;;;;;;;20.88;4.65;;;;;;;;;;5241377;27;20061;-93
2021/03/27 04:35:00;;;;;;;22.55;4.05;;;;;;;;;;5220712;27;20032;-94
2021/03/27 04:37:34;;;;;;;20.30;3.28;;;;;;;;;;5223968;27;20045;-94
2021/03/27 04:40:12;;;;;;;13.65;3.58;;;;;;;;;;5220783;27;20022;-94
2021/03/27 04:42:46;;;;;;;24.77;4.60;;;;;;;;;;5221451;27;20033;-92
2021/03/27 04:45:26;;;;;;;15.85;4.00;;;;;;;;;;5221278;27;20033;-93
2021/03/27 04:48:04;;;;;;;24.40;4.00;;;;;;;;;;5221924;27;20034;-95
2021/03/27 04:51:08;;;;;;;19.30;3.35;;;;;;;;;;5226325;27;20018;-96
2021/03/27 04:53:43;;;;;;;16.27;3.72;;;;;;;;;;5225201;27;20482;-95
2021/03/27 04:56:12;;;;;;;22.55;4.30;;;;;;;;;;5224411;27;20049;-94
2021/03/27 04:58:45;;;;;;;22.67;4.70;;;;;;;;;;5224773;27;20025;-94
2021/03/27 05:01:14;;;;;;;17.92;3.83;;;;;;;;;;5224849;27;20033;-93
2021/03/27 05:04:17;;;;;;;22.85;3.85;;;;;;;;;;5223577;27;20053;-95
2021/03/27 05:06:56;;;;;;;16.15;3.35;;;;;;;;;;5206486;27;20403;-95
2021/03/27 05:09:29;;;;;;;18.25;3.87;;;;;;;;;;5225194;27;20038;-93
2021/03/27 05:12:03;;;;;;;16.45;3.70;;;;;;;;;;5236165;27;20026;-93
2021/03/27 05:14:46;;;;;;;17.85;3.30;;;;;;;;;;5244607;27;20034;-93
2021/03/27 05:17:17;;;;;;;18.70;4.18;;;;;;;;;;5244673;27;20018;-95
2021/03/27 05:19:55;;;;;;;17.48;3.67;;;;;;;;;;5246832;27;20031;-95
2021/03/27 05:22:47;;;;;;;19.10;4.18;;;;;;;;;;5244765;27;20034;-95
2021/03/27 05:25:26;;;;;;;23.20;4.03;;;;;;;;;;5242439;27;20034;-94
2021/03/27 05:28:14;;;;;;;18.10;4.00;;;;;;;;;;5227892;27;20657;-94
2021/03/27 05:30:55;;;;;;;25.80;4.70;;;;;;;;;;5246518;27;20077;-94
2021/03/27 05:33:46;;;;;;;18.17;4.05;;;;;;;;;;5246218;27;20057;-94
2021/03/27 05:36:18;;;;;;;24.10;4.40;;;;;;;;;;5201895;27;20437;-94
2021/03/27 05:38:56;;;;;;;22.10;4.18;;;;;;;;;;5244921;27;20033;-95
2021/03/27 05:41:57;;;;;;;19.45;3.90;;;;;;;;;;5245760;27;20017;-94
2021/03/27 05:44:31;;;;;;;14.87;3.62;;;;;;;;;;5241822;27;20524;-94
2021/03/27 05:47:00;;;;;;;;;;;;;;;;;;5243462;27;20246;-95
2021/03/27 05:49:40;;;;;;;16.10;3.80;;;;;;;;;;5241897;27;19925;-96
2021/03/27 05:52:15;;;;;;;17.45;3.33;;;;;;;;;;5242533;27;20025;-94
2021/03/27 05:55:02;;;;;;;18.05;3.45;;;;;;;;;;5242099;27;20028;-93
2021/03/27 05:57:30;;;;;;;21.75;4.40;;;;;;;;;;5242077;27;20050;-94
2021/03/27 06:00:17;;;;;;;19.98;4.32;;;;;;;;;;5241361;27;20073;-95
2021/03/27 06:03:04;;;;;;;21.08;3.70;;;;;;;;;;5262920;27;20010;-96
2021/03/27 06:05:46;;;;;;;27.50;4.15;;;;;;;;;;5243292;27;20743;-94
2021/03/27 06:08:27;;;;;;;21.00;4.00;;;;;;;;;;5241719;27;20033;-93
2021/03/27 06:11:05;;;;;;;14.87;3.33;;;;;;;;;;5238697;27;20072;-94
2021/03/27 06:13:53;;;;;;;17.02;3.40;;;;;;;;;;5239629;27;20031;-93
2021/03/27 06:16:42;;;;;;;16.02;3.95;;;;;;;;;;5236934;27;20057;-94
2021/03/27 06:19:30;;;;;;;17.77;3.83;;;;;;;;;;5233497;27;20056;-95
2021/03/27 06:22:09;;;;;;;17.92;3.62;;;;;;;;;;5239615;27;20433;-94
2021/03/27 06:25:17;;;;;;;11.12;3.25;;;;;;;;;;5238455;27;20776;-94
2021/03/27 06:28:12;;;;;;;26.52;4.12;;;;;;;;;;5144588;27;20461;-94
2021/03/27 06:30:49;;;;;;;13.95;3.53;;;;;;;;;;5133749;27;20451;-94
2021/03/27 06:33:36;;;;;;;22.90;3.78;;;;;;;;;;5212323;27;20030;-92
2021/03/27 06:36:22;;;;;;;15.13;3.80;;;;;;;;;;5249714;27;20030;-94
2021/03/27 06:38:50;;;;;;;13.55;3.60;;;;;;;;;;5238734;27;20040;-93
2021/03/27 06:41:28;;;;;;;19.77;3.60;;;;;;;;;;5239990;27;20018;-93
2021/03/27 06:44:02;;;;;;;17.25;3.83;;;;;;;;;;5231221;27;20029;-92
2021/03/27 06:46:34;;;;;;;12.93;3.20;;;;;;;;;;5238353;27;20052;-93
2021/03/27 06:49:08;;;;;;;15.38;3.72;;;;;;;;;;5233253;27;20036;-95
2021/03/27 06:51:52;;;;;;;19.95;3.62;;;;;;;;;;5238103;27;20033;-93
2021/03/27 06:54:40;;;;;;;16.02;3.70;;;;;;;;;;5234654;27;20058;-93
2021/03/27 06:57:30;;;;;;;18.50;3.53;;;;;;;;;;5231770;27;20497;-92
2021/03/27 07:00:04;;;;;;;18.23;3.67;;;;;;;;;;5238104;27;20024;-93
2021/03/27 07:02:32;;;;;;;;;;;;;;;;;;5241366;27;20069;-92
2021/03/27 07:05:07;;;;;;;14.87;3.50;;;;;;;;;;5230241;27;20626;-94
2021/03/27 07:07:44;;;;;;;14.55;3.33;;;;;;;;;;5235755;27;20073;-95
2021/03/27 07:10:24;;;;;;;13.77;3.47;;;;;;;;;;5234254;27;20014;-95
2021/03/27 07:12:53;;;;;;;16.48;3.10;;;;;;;;;;5217910;27;20421;-93
2021/03/27 07:15:34;;;;;;;11.45;2.78;;;;;;;;;;5217342;27;20069;-95
2021/03/27 07:18:27;;;;;;;15.48;3.03;;;;;;;;;;5216751;27;20182;-95
2021/03/27 07:21:08;;;;;;;12.88;2.95;;;;;;;;;;5217427;27;20458;-94
2021/03/27 07:23:39;;;;;;;14.32;3.00;;;;;;;;;;5218327;27;20085;-93
2021/03/27 07:26:23;;;;;;;15.55;3.30;;;;;;;;;;5215483;27;20295;-93
2021/03/27 07:29:02;;;;;;;60.42;28.10;;;;;;;;;;5216569;27;20034;-94
2021/03/27 07:31:35;;;;;;;8.55;1.60;;;;;;;;;;5218629;27;20073;-93
2021/03/27 07:34:04;;;;;;;209.32;199.45;;;;;;;;;;5217038;27;20031;-96
2021/03/27 07:36:33;;;;;;;1999.90;999.90;;;;;;;;;;5216685;27;20034;-95
2021/03/27 07:39:20;;;;;;;1999.90;999.90;;;;;;;;;;5216662;27;20423;-94
2021/03/27 07:42:07;;;;;;;1999.90;999.90;;;;;;;;;;5219127;27;20732;-95
2021/03/27 07:44:54;;;;;;;36.45;33.28;;;;;;;;;;5217485;27;20040;-95
2021/03/27 07:47:39;;;;;;;56.50;52.50;;;;;;;;;;5217488;27;20739;-93
2021/03/27 07:50:16;;;;;;;27.45;24.77;;;;;;;;;;5219023;27;20021;-92
2021/03/27 07:53:04;;;;;;;1999.90;999.90;;;;;;;;;;5219970;27;20785;-93
2021/03/27 07:55:52;;;;;;;771.25;708.97;;;;;;;;;;5217105;27;20026;-94
2021/03/27 07:58:26;;;;;;;390.05;362.58;;;;;;;;;;5216702;27;20262;-93
2021/03/27 08:00:54;;;;;;;468.80;437.35;;;;;;;;;;5218601;27;20030;-94
2021/03/27 08:03:40;;;;;;;305.55;287.88;;;;;;;;;;5219456;27;20030;-95
2021/03/27 08:06:12;;;;;;;320.67;301.62;;;;;;;;;;5221138;27;20069;-95
2021/03/27 08:08:45;;;;;;;11.15;2.10;;;;;;;;;;5216852;27;20076;-95
2021/03/27 08:11:19;;;;;;;11.63;1.60;;;;;;;;;;5244948;27;20034;-96
2021/03/27 08:13:55;;;;;;;7.28;1.67;;;;;;;;;;5239041;27;20034;-96
2021/03/27 08:16:44;;;;;;;11.75;1.80;;;;;;;;;;5240391;27;20030;-96
2021/03/27 08:19:17;;;;;;;1029.65;516.45;;;;;;;;;;5238485;27;20053;-96
2021/03/27 08:22:02;;;;;;;33.28;31.85;;;;;;;;;;5244508;27;20028;-96
2021/03/27 08:24:50;;;;;;;719.42;323.87;;;;;;;;;;5243920;27;20060;-95
2021/03/27 08:27:40;;;;;;;8.18;1.52;;;;;;;;;;5236367;27;20050;-95
2021/03/27 08:30:35;;;;;;;14.45;2.80;;;;;;;;;;5235660;27;20027;-96
2021/03/27 08:33:28;;;;;;;20.48;3.42;;;;;;;;;;5242814;27;20059;-95
2021/03/27 08:36:16;;;;;;;13.48;2.90;;;;;;;;;;5239099;27;20030;-96
2021/03/27 08:39:01;;;;;;;15.75;3.10;;;;;;;;;;5240061;27;20396;-96
2021/03/27 08:41:48;;;;;;;10.43;2.80;;;;;;;;;;5240417;27;20107;-94
2021/03/27 08:44:31;;;;;;;13.32;2.95;;;;;;;;;;5235399;27;20026;-96
2021/03/27 08:47:00;;;;;;;7.72;2.33;;;;;;;;;;5231852;27;20035;-94
2021/03/27 08:49:50;;;;;;;10.25;2.37;;;;;;;;;;5238782;27;20024;-96
2021/03/27 08:52:37;;;;;;;12.55;2.75;;;;;;;;;;5233607;27;20032;-94
2021/03/27 08:55:11;;;;;;;11.77;2.67;;;;;;;;;;5231536;27;20030;-96
2021/03/27 08:57:58;;;;;;;8.95;2.55;;;;;;;;;;5238041;27;20069;-95
2021/03/27 09:00:32;;;;;;;10.85;2.92;;;;;;;;;;5236142;27;20018;-94
2021/03/27 09:03:16;;;;;;;15.98;3.00;;;;;;;;;;5231001;27;20046;-94
2021/03/27 09:05:44;;;;;;;12.32;2.85;;;;;;;;;;5235561;27;20032;-95
2021/03/27 09:08:27;;;;;;;12.90;2.60;;;;;;;;;;5239207;27;20014;-95
2021/03/27 09:11:00;;;;;;;12.80;2.85;;;;;;;;;;5231457;27;20033;-96
2021/03/27 09:13:32;;;;;;;13.25;3.00;;;;;;;;;;5241992;27;20071;-94
2021/03/27 09:16:12;;;;;;;13.35;3.00;;;;;;;;;;5234599;27;20064;-95
2021/03/27 09:18:45;;;;;;;7.57;2.65;;;;;;;;;;5238432;27;20029;-96
2021/03/27 09:21:31;;;;;;;11.75;3.10;;;;;;;;;;5238482;27;20056;-95
2021/03/27 09:24:43;;;;;;;8.45;2.65;;;;;;;;;;5260684;27;19998;-94
2021/03/27 09:27:17;;;;;;;11.05;2.80;;;;;;;;;;5220898;27;20434;-95
2021/03/27 09:29:49;;;;;;;9.27;2.70;;;;;;;;;;5242179;27;20027;-96
2021/03/27 09:32:40;;;;;;;10.77;2.55;;;;;;;;;;5256985;27;20092;-96
2021/03/27 09:35:27;;;;;;;10.85;2.67;;;;;;;;;;5254404;27;20084;-96
2021/03/27 09:38:18;;;;;;;8.85;2.80;;;;;;;;;;5259384;27;19998;-96
2021/03/27 09:41:10;;;;;;;11.25;2.97;;;;;;;;;;5244362;27;20043;-96
2021/03/27 09:43:40;;;;;;;8.63;2.35;;;;;;;;;;5239958;27;20359;-95
2021/03/27 09:46:20;;;;;;;9.07;2.37;;;;;;;;;;5235869;27;20048;-96
2021/03/27 09:48:48;;;;;;;10.88;2.72;;;;;;;;;;5254826;27;20021;-95
2021/03/27 09:51:35;;;;;;;11.48;3.10;;;;;;;;;;5254994;27;20035;-93
2021/03/27 09:54:06;;;;;;;8.95;2.90;;;;;;;;;;5232322;27;20037;-94
2021/03/27 09:56:49;;;;;;;7.90;2.42;;;;;;;;;;5255970;27;20387;-93
2021/03/27 09:59:30;;;;;;;11.23;2.83;;;;;;;;;;5257195;27;20379;-96
2021/03/27 10:02:04;;;;;;;7.15;2.85;;;;;;;;;;5231747;27;20041;-95
2021/03/27 10:04:41;;;;;;;8.17;2.40;;;;;;;;;;5255765;27;20045;-96
2021/03/27 10:07:28;;;;;;;16.15;2.72;;;;;;;;;;5231137;27;20076;-95
2021/03/27 10:10:15;;;;;;;8.65;2.62;;;;;;;;;;5235944;27;20339;-94
2021/03/27 10:12:59;;;;;;;8.98;2.83;;;;;;;;;;5254950;27;20029;-95
2021/03/27 10:15:37;;;;;;;8.55;2.67;;;;;;;;;;5236173;27;20117;-95
2021/03/27 10:18:15;;;;;;;8.32;2.30;;;;;;;;;;5231926;27;20034;-95
2021/03/27 10:20:46;;;;;;;11.25;3.10;;;;;;;;;;5235298;27;20034;-94
2021/03/27 10:23:31;;;;;;;9.55;2.62;;;;;;;;;;5236214;27;20036;-96
2021/03/27 10:26:15;;;;;;;10.23;2.47;;;;;;;;;;5234290;27;20040;-96
2021/03/27 10:29:05;;;;;;;12.68;3.03;;;;;;;;;;5258032;27;20026;-95
2021/03/27 10:31:48;;;;;;;10.02;2.62;;;;;;;;;;5243915;27;20028;-96
2021/03/27 10:34:47;;;;;;;8.32;2.40;;;;;;;;;;5244932;27;20085;-95
2021/03/27 10:37:42;;;;;;;10.68;2.60;;;;;;;;;;5262049;27;20026;-96
2021/03/27 10:40:35;;;;;;;12.37;2.83;;;;;;;;;;5268812;27;20064;-96
2021/03/27 10:43:27;;;;;;;15.48;3.20;;;;;;;;;;5238616;27;20030;-96
2021/03/27 10:45:55;;;;;;;7.50;2.60;;;;;;;;;;5240704;27;20037;-96
2021/03/27 10:48:42;;;;;;;10.90;2.67;;;;;;;;;;5256334;27;20065;-94
2021/03/27 10:51:24;;;;;;;10.18;2.65;;;;;;;;;;5234730;27;20019;-95
2021/03/27 10:54:13;;;;;;;8.60;2.30;;;;;;;;;;5239154;27;20062;-95
2021/03/27 10:57:11;;;;;;;7.65;2.28;;;;;;;;;;5255785;27;20031;-96
2021/03/27 10:59:49;;;;;;;8.05;2.30;;;;;;;;;;5241650;27;20014;-94
2021/03/27 11:02:42;;;;;;;9.48;2.72;;;;;;;;;;5241033;27;20078;-96
2021/03/27 11:05:33;;;;;;;11.00;2.80;;;;;;;;;;5236816;27;20018;-95
2021/03/27 11:08:03;;;;;;;9.43;2.58;;;;;;;;;;5239100;27;20034;-94
2021/03/27 11:10:51;;;;;;;7.05;2.80;;;;;;;;;;5240512;27;20032;-95
2021/03/27 11:13:38;;;;;;;8.60;2.60;;;;;;;;;;5242765;27;20029;-94
2021/03/27 11:16:13;;;;;;;15.70;2.80;;;;;;;;;;5243157;27;20060;-96
2021/03/27 11:19:19;;;;;;;13.45;2.90;;;;;;;;;;5272209;27;20054;-96
2021/03/27 11:22:19;;;;;;;8.98;2.65;;;;;;;;;;5256172;27;20437;-95
2021/03/27 11:25:09;;;;;;;9.25;2.22;;;;;;;;;;5248433;27;20067;-95
2021/03/27 11:27:46;;;;;;;7.53;2.10;;;;;;;;;;5250014;27;20048;-96
2021/03/27 11:30:51;;;;;;;9.35;2.60;;;;;;;;;;5250335;27;20073;-96
2021/03/27 11:33:31;;;;;;;13.18;2.25;;;;;;;;;;5242892;27;20025;-94
2021/03/27 11:36:05;;;;;;;9.95;2.62;;;;;;;;;;5244133;27;20071;-96
2021/03/27 11:38:44;;;;;;;10.32;2.83;;;;;;;;;;5243846;27;20022;-95
2021/03/27 11:41:24;;;;;;;7.00;2.35;;;;;;;;;;5245659;27;20022;-96
2021/03/27 11:44:07;;;;;;;6.12;2.20;;;;;;;;;;5245510;27;20021;-96
2021/03/27 11:49:21;;;;;;;9.45;2.55;;;;;;;;;;5216331;27;20031;-95
2021/03/27 11:52:04;;;;;;;12.77;3.12;;;;;;;;;;5235588;27;20382;-94
2021/03/27 11:54:49;;;;;;;11.55;2.78;;;;;;;;;;5200328;27;20066;-96
2021/03/27 11:57:25;;;;;;;9.00;2.65;;;;;;;;;;5235510;27;20044;-95
2021/03/27 12:02:49;;;;;;;8.32;2.28;;;;;;;;;;5216857;27;20333;-95
2021/03/27 12:05:30;;;;;;;8.68;2.37;;;;;;;;;;5202209;27;20090;-95
2021/03/27 12:07:59;;;;;;;12.75;2.60;;;;;;;;;;5234672;27;20030;-95
2021/03/27 12:10:31;;;;;;;7.18;2.20;;;;;;;;;;5235418;27;20084;-95
2021/03/27 12:13:06;;;;;;;11.20;2.30;;;;;;;;;;5200647;27;20053;-94
2021/03/27 12:15:48;;;;;;;7.07;2.08;;;;;;;;;;5235471;27;20019;-95
2021/03/27 12:18:29;;;;;;;6.62;1.83;;;;;;;;;;5237247;27;20071;-95
2021/03/27 12:21:06;;;;;;;6.90;2.28;;;;;;;;;;5201535;27;20018;-96
2021/03/27 12:23:41;;;;;;;11.80;2.47;;;;;;;;;;5201622;27;20787;-94
2021/03/27 12:26:45;;;;;;;13.15;2.58;;;;;;;;;;5235725;27;20748;-94
2021/03/27 12:29:34;;;;;;;9.10;2.30;;;;;;;;;;5201422;27;20023;-95
2021/03/27 12:32:05;;;;;;;9.85;2.47;;;;;;;;;;5200003;27;20070;-94
2021/03/27 12:34:57;;;;;;;14.05;2.80;;;;;;;;;;5200068;27;20070;-95
2021/03/27 12:37:30;;;;;;;16.70;3.45;;;;;;;;;;5196046;27;20031;-93
2021/03/27 12:40:17;;;;;;;9.05;2.45;;;;;;;;;;5201367;27;20040;-94
2021/03/27 12:42:48;;;;;;;16.00;3.03;;;;;;;;;;5218946;27;20056;-96
2021/03/27 12:45:22;;;;;;;12.32;3.00;;;;;;;;;;5201749;27;20094;-95
2021/03/27 12:48:01;;;;;;;24.27;3.85;;;;;;;;;;5194639;27;20067;-92
2021/03/27 12:50:31;;;;;;;15.98;2.97;;;;;;;;;;5197474;27;20137;-93
2021/03/27 12:53:15;;;;;;;7.93;2.37;;;;;;;;;;5178022;27;20440;-93
2021/03/27 12:55:49;;;;;;;10.50;2.40;;;;;;;;;;5168659;27;20493;-94
2021/03/27 12:58:38;;;;;;;16.10;3.22;;;;;;;;;;5192426;27;20031;-95
2021/03/27 13:01:22;;;;;;;9.55;2.70;;;;;;;;;;5181803;27;20033;-96
2021/03/27 13:04:23;;;;;;;17.48;3.37;;;;;;;;;;5198507;27;20074;-96
2021/03/27 13:06:51;;;;;;;18.67;4.00;;;;;;;;;;5142121;27;20054;-96
2021/03/27 13:09:43;;;;;;;13.73;2.92;;;;;;;;;;5195885;27;20031;-95
2021/03/27 13:12:24;;;;;;;13.90;3.15;;;;;;;;;;5182829;27;20037;-94
2021/03/27 13:14:59;;;;;;;20.83;4.05;;;;;;;;;;5199812;27;20061;-95
2021/03/27 13:17:38;;;;;;;15.30;3.05;;;;;;;;;;5182633;27;20034;-96
2021/03/27 13:20:22;;;;;;;12.30;3.47;;;;;;;;;;5181824;27;20026;-96
2021/03/27 13:22:53;;;;;;;;;;;;;;;;;;5183176;27;20069;-96
2021/03/27 13:25:35;;;;;;;17.33;3.55;;;;;;;;;;5180847;27;20460;-94
2021/03/27 13:28:17;;;;;;;12.52;2.60;;;;;;;;;;5181017;27;20038;-93
2021/03/27 13:30:53;;;;;;;17.77;2.70;;;;;;;;;;5181038;27;20057;-94
2021/03/27 13:33:24;;;;;;;9.40;2.87;;;;;;;;;;5198169;27;20033;-95
2021/03/27 13:36:25;;;;;;;8.63;2.30;;;;;;;;;;5197235;27;20035;-96
2021/03/27 13:38:54;;;;;;;12.32;3.10;;;;;;;;;;5164288;27;20042;-96
2021/03/27 13:41:45;;;;;;;12.23;2.83;;;;;;;;;;5178792;27;20351;-96
2021/03/27 13:44:20;;;;;;;14.52;2.97;;;;;;;;;;5198084;27;20391;-94
2021/03/27 13:47:03;;;;;;;18.40;3.37;;;;;;;;;;5196817;27;20065;-96
2021/03/27 13:49:42;;;;;;;12.00;2.78;;;;;;;;;;5177483;27;20356;-96
2021/03/27 13:52:30;;;;;;;10.85;2.53;;;;;;;;;;5179147;27;20504;-96
2021/03/27 13:55:21;;;;;;;9.90;2.30;;;;;;;;;;5179914;27;20033;-95
2021/03/27 13:58:09;;;;;;;11.98;2.95;;;;;;;;;;5120291;27;20344;-95
2021/03/27 14:00:48;;;;;;;11.40;2.60;;;;;;;;;;5197124;27;20771;-96
2021/03/27 14:03:20;;;;;;;9.00;2.30;;;;;;;;;;5180922;27;20041;-96
2021/03/27 14:05:55;;;;;;;13.38;2.80;;;;;;;;;;5180701;27;20037;-95
2021/03/27 14:08:26;;;;;;;11.40;2.35;;;;;;;;;;5177937;27;20069;-96
2021/03/27 14:10:59;;;;;;;8.88;2.40;;;;;;;;;;5179458;27;20078;-94
2021/03/27 14:13:45;;;;;;;14.57;2.70;;;;;;;;;;5179773;27;20041;-96
2021/03/27 14:16:25;;;;;;;10.88;2.70;;;;;;;;;;5199012;27;20098;-96
2021/03/27 14:19:03;;;;;;;16.08;3.05;;;;;;;;;;5180584;27;20027;-95
2021/03/27 14:21:37;;;;;;;11.73;2.90;;;;;;;;;;5179398;27;20352;-94
2021/03/27 14:24:07;;;;;;;13.88;2.85;;;;;;;;;;5180099;27;20030;-94
2021/03/27 14:27:02;;;;;;;11.77;2.60;;;;;;;;;;5179277;27;20072;-94
2021/03/27 14:29:58;;;;;;;9.43;2.80;;;;;;;;;;5180591;27;20098;-95
2021/03/27 14:32:33;;;;;;;1.25;0.43;;;;;;;;;;5179241;27;20023;-93
2021/03/27 14:35:08;;;;;;;0.28;0.28;;;;;;;;;;5177581;27;20328;-96
2021/03/27 14:37:39;;;;;;;15.45;2.53;;;;;;;;;;5179139;27;20093;-96
2021/03/27 14:40:14;;;;;;;11.38;2.70;;;;;;;;;;5196681;27;20278;-95
2021/03/27 14:42:53;;;;;;;12.85;2.33;;;;;;;;;;5180882;27;20019;-96
2021/03/27 14:45:28;;;;;;;14.52;3.05;;;;;;;;;;5179520;27;20065;-94
2021/03/27 14:47:57;;;;;;;17.00;3.35;;;;;;;;;;5189352;27;20018;-96
2021/03/27 14:50:30;;;;;;;10.15;2.50;;;;;;;;;;5200336;27;20037;-95
2021/03/27 14:53:07;;;;;;;11.73;2.47;;;;;;;;;;5201499;27;20029;-94
2021/03/27 14:55:46;;;;;;;12.10;3.08;;;;;;;;;;5203879;27;20230;-96
2021/03/27 14:58:31;;;;;;;14.50;3.20;;;;;;;;;;5200028;27;20030;-95
2021/03/27 15:01:23;;;;;;;24.55;3.53;;;;;;;;;;5198745;27;20010;-93
2021/03/27 15:03:56;;;;;;;14.50;2.62;;;;;;;;;;5190846;27;20034;-95
2021/03/27 15:06:50;;;;;;;13.57;2.80;;;;;;;;;;5201354;27;20037;-95
2021/03/27 15:09:37;;;;;;;18.20;3.42;;;;;;;;;;5178843;27;20030;-94
2021/03/27 15:12:30;;;;;;;10.25;2.62;;;;;;;;;;5202780;27;20025;-95
2021/03/27 15:15:02;;;;;;;13.30;3.28;;;;;;;;;;5202765;27;20367;-96
2021/03/27 15:17:35;;;;;;;0.57;0.20;;;;;;;;;;5202566;27;20046;-96
2021/03/27 15:20:06;;;;;;;11.80;2.37;;;;;;;;;;5201456;27;20034;-95
2021/03/27 15:22:53;;;;;;;10.70;3.00;;;;;;;;;;5201754;27;20022;-96
2021/03/27 15:28:14;;;;;;;14.55;2.85;;;;;;;;;;5219507;27;20029;-96
2021/03/27 15:31:02;;;;;;;12.48;2.83;;;;;;;;;;5201988;27;20162;-96
2021/03/27 15:33:36;;;;;;;15.68;3.72;;;;;;;;;;5199129;27;20018;-95
2021/03/27 15:36:14;;;;;;;14.70;3.45;;;;;;;;;;5200076;27;20030;-96
2021/03/27 15:39:06;;;;;;;29.58;8.13;;;;;;;;;;5201421;27;20022;-96
2021/03/27 15:41:41;;;;;;;19.83;6.78;;;;;;;;;;5176215;27;20034;-96
2021/03/27 15:44:11;;;;;;;17.98;4.18;;;;;;;;;;5197530;27;20405;-94
2021/03/27 15:46:48;;;;;;;14.80;3.42;;;;;;;;;;5201599;27;20033;-96
2021/03/27 15:49:26;;;;;;;21.42;5.22;;;;;;;;;;5181380;27;20479;-95
2021/03/27 15:52:00;;;;;;;15.98;4.15;;;;;;;;;;5179889;27;20030;-96
2021/03/27 15:54:39;;;;;;;20.75;5.78;;;;;;;;;;5179131;27;20022;-96